sensor_id;sensor_type;location;lat;lon;timestamp;temperature;humidity
5352;DHT22;2698;51.454;6.736;2022-11-15T00:01:54;10.50;99.90
5352;DHT22;2698;51.454;6.736;2022-11-15T00:04:22;10.50;99.90
5352;DHT22;2698;51.454;6.736;2022-11-15T00:06:49;10.60;99.90
5352;DHT22;2698;51.454;6.736;2022-11-15T00:09:15;10.60;99.90
5352;DHT22;2698;51.454;6.736;2022-11-15T00:11:42;10.60;99.90
5352;DHT22;2698;51.454;6.736;2022-11-15T00:14:09;10.60;99.90
5352;DHT22;2698;51.454;6.736;2022-11-15T00:16:36;10.60;99.90
5352;DHT22;2698;51.454;6.736;2022-11-15T00:19:02;10.70;99.90
5352;DHT22;2698;51.454;6.736;2022-11-15T00:21:30;10.70;99.90
5352;DHT22;2698;51.454;6.736;2022-11-15T00:23:58;10.70;99.90
5352;DHT22;2698;51.454;6.736;2022-11-15T00:26:25;10.80;99.90
5352;DHT22;2698;51.454;6.736;2022-11-15T00:28:51;10.80;99.90
5352;DHT22;2698;51.454;6.736;2022-11-15T00:31:18;10.90;99.90
5352;DHT22;2698;51.454;6.736;2022-11-15T00:33:45;10.90;99.90
5352;DHT22;2698;51.454;6.736;2022-11-15T00:36:12;10.90;99.90
5352;DHT22;2698;51.454;6.736;2022-11-15T00:38:40;10.90;99.90
5352;DHT22;2698;51.454;6.736;2022-11-15T00:41:07;10.90;99.90
5352;DHT22;2698;51.454;6.736;2022-11-15T00:43:34;11.00;99.90
5352;DHT22;2698;51.454;6.736;2022-11-15T00:46:01;11.00;99.90
5352;DHT22;2698;51.454;6.736;2022-11-15T00:48:28;11.00;99.90
5352;DHT22;2698;51.454;6.736;2022-11-15T00:50:55;11.00;99.90
5352;DHT22;2698;51.454;6.736;2022-11-15T00:53:21;11.00;99.90
5352;DHT22;2698;51.454;6.736;2022-11-15T00:55:50;11.00;99.90
5352;DHT22;2698;51.454;6.736;2022-11-15T00:58:16;11.10;99.90
5352;DHT22;2698;51.454;6.736;2022-11-15T01:00:43;11.10;99.90
5352;DHT22;2698;51.454;6.736;2022-11-15T01:03:10;11.10;99.90
5352;DHT22;2698;51.454;6.736;2022-11-15T01:05:37;11.10;99.90
5352;DHT22;2698;51.454;6.736;2022-11-15T01:08:04;11.20;99.90
5352;DHT22;2698;51.454;6.736;2022-11-15T01:10:31;11.20;99.90
5352;DHT22;2698;51.454;6.736;2022-11-15T01:12:59;11.20;99.90
5352;DHT22;2698;51.454;6.736;2022-11-15T01:15:25;11.30;99.90
5352;DHT22;2698;51.454;6.736;2022-11-15T01:17:52;11.30;99.90
5352;DHT22;2698;51.454;6.736;2022-11-15T01:20:20;11.40;99.90
5352;DHT22;2698;51.454;6.736;2022-11-15T01:22:47;11.40;99.90
5352;DHT22;2698;51.454;6.736;2022-11-15T01:25:14;11.40;99.90
5352;DHT22;2698;51.454;6.736;2022-11-15T01:27:40;11.40;99.90
5352;DHT22;2698;51.454;6.736;2022-11-15T01:30:09;11.40;99.90
5352;DHT22;2698;51.454;6.736;2022-11-15T01:32:36;11.50;99.90
5352;DHT22;2698;51.454;6.736;2022-11-15T01:35:03;11.50;99.90
5352;DHT22;2698;51.454;6.736;2022-11-15T01:37:30;11.50;99.90
5352;DHT22;2698;51.454;6.736;2022-11-15T01:39:56;11.50;99.90
5352;DHT22;2698;51.454;6.736;2022-11-15T01:42:23;11.50;99.90
5352;DHT22;2698;51.454;6.736;2022-11-15T01:44:51;11.60;99.90
5352;DHT22;2698;51.454;6.736;2022-11-15T01:47:22;11.60;99.90
5352;DHT22;2698;51.454;6.736;2022-11-15T01:49:54;11.60;99.90
5352;DHT22;2698;51.454;6.736;2022-11-15T01:52:25;11.60;99.90
5352;DHT22;2698;51.454;6.736;2022-11-15T01:54:57;11.60;99.90
5352;DHT22;2698;51.454;6.736;2022-11-15T01:57:25;11.50;99.90
5352;DHT22;2698;51.454;6.736;2022-11-15T01:59:52;11.50;99.90
5352;DHT22;2698;51.454;6.736;2022-11-15T02:02:20;11.50;99.90
5352;DHT22;2698;51.454;6.736;2022-11-15T02:04:47;11.50;99.90
5352;DHT22;2698;51.454;6.736;2022-11-15T02:07:16;11.50;99.90
5352;DHT22;2698;51.454;6.736;2022-11-15T02:09:44;11.50;99.90
5352;DHT22;2698;51.454;6.736;2022-11-15T02:12:14;11.60;99.90
5352;DHT22;2698;51.454;6.736;2022-11-15T02:14:46;11.60;99.90
5352;DHT22;2698;51.454;6.736;2022-11-15T02:17:28;11.60;99.90
5352;DHT22;2698;51.454;6.736;2022-11-15T02:20:14;11.60;99.90
5352;DHT22;2698;51.454;6.736;2022-11-15T02:23:04;11.70;99.90
5352;DHT22;2698;51.454;6.736;2022-11-15T02:25:43;11.70;99.90
5352;DHT22;2698;51.454;6.736;2022-11-15T02:28:34;11.70;99.90
5352;DHT22;2698;51.454;6.736;2022-11-15T02:31:09;11.70;99.90
5352;DHT22;2698;51.454;6.736;2022-11-15T02:33:41;11.70;99.90
5352;DHT22;2698;51.454;6.736;2022-11-15T02:36:15;11.70;99.90
5352;DHT22;2698;51.454;6.736;2022-11-15T02:38:50;11.70;99.90
5352;DHT22;2698;51.454;6.736;2022-11-15T02:41:25;11.80;99.90
5352;DHT22;2698;51.454;6.736;2022-11-15T02:43:58;11.80;99.90
5352;DHT22;2698;51.454;6.736;2022-11-15T02:46:33;11.80;99.90
5352;DHT22;2698;51.454;6.736;2022-11-15T02:49:19;11.80;99.90
5352;DHT22;2698;51.454;6.736;2022-11-15T02:51:48;11.80;99.90
5352;DHT22;2698;51.454;6.736;2022-11-15T02:54:19;11.90;99.90
5352;DHT22;2698;51.454;6.736;2022-11-15T02:56:47;11.90;99.90
5352;DHT22;2698;51.454;6.736;2022-11-15T03:02:18;12.00;99.90
5352;DHT22;2698;51.454;6.736;2022-11-15T03:04:53;12.00;99.90
5352;DHT22;2698;51.454;6.736;2022-11-15T03:07:26;12.00;99.90
5352;DHT22;2698;51.454;6.736;2022-11-15T03:10:02;12.10;99.90
5352;DHT22;2698;51.454;6.736;2022-11-15T03:12:36;12.00;99.90
5352;DHT22;2698;51.454;6.736;2022-11-15T03:15:10;12.00;99.90
5352;DHT22;2698;51.454;6.736;2022-11-15T03:17:43;12.00;99.90
5352;DHT22;2698;51.454;6.736;2022-11-15T03:20:13;12.00;99.90
5352;DHT22;2698;51.454;6.736;2022-11-15T03:22:44;12.10;99.90
5352;DHT22;2698;51.454;6.736;2022-11-15T03:25:16;12.10;99.90
5352;DHT22;2698;51.454;6.736;2022-11-15T03:27:48;12.10;99.90
5352;DHT22;2698;51.454;6.736;2022-11-15T03:30:17;12.20;99.90
5352;DHT22;2698;51.454;6.736;2022-11-15T03:32:52;12.20;99.90
5352;DHT22;2698;51.454;6.736;2022-11-15T03:35:22;12.20;99.90
5352;DHT22;2698;51.454;6.736;2022-11-15T03:37:59;12.20;99.90
5352;DHT22;2698;51.454;6.736;2022-11-15T03:40:30;12.20;99.90
5352;DHT22;2698;51.454;6.736;2022-11-15T03:43:04;12.30;99.90
5352;DHT22;2698;51.454;6.736;2022-11-15T03:45:36;12.20;99.90
5352;DHT22;2698;51.454;6.736;2022-11-15T03:48:10;12.20;99.90
5352;DHT22;2698;51.454;6.736;2022-11-15T03:50:40;12.30;99.90
5352;DHT22;2698;51.454;6.736;2022-11-15T03:53:08;12.30;99.90
5352;DHT22;2698;51.454;6.736;2022-11-15T03:55:35;12.30;99.90
5352;DHT22;2698;51.454;6.736;2022-11-15T03:58:02;12.30;99.90
5352;DHT22;2698;51.454;6.736;2022-11-15T04:00:29;12.30;99.90
5352;DHT22;2698;51.454;6.736;2022-11-15T04:02:56;12.30;99.90
5352;DHT22;2698;51.454;6.736;2022-11-15T04:05:24;12.30;99.90
5352;DHT22;2698;51.454;6.736;2022-11-15T04:07:51;12.30;99.90
5352;DHT22;2698;51.454;6.736;2022-11-15T04:10:18;12.30;99.90
5352;DHT22;2698;51.454;6.736;2022-11-15T04:12:46;12.30;99.90
5352;DHT22;2698;51.454;6.736;2022-11-15T04:15:15;12.30;99.90
5352;DHT22;2698;51.454;6.736;2022-11-15T04:17:44;12.40;99.90
5352;DHT22;2698;51.454;6.736;2022-11-15T04:20:13;12.30;99.90
5352;DHT22;2698;51.454;6.736;2022-11-15T04:23:00;12.40;99.90
5352;DHT22;2698;51.454;6.736;2022-11-15T04:25:48;12.40;99.90
5352;DHT22;2698;51.454;6.736;2022-11-15T04:28:16;12.40;99.90
5352;DHT22;2698;51.454;6.736;2022-11-15T04:30:43;12.40;99.90
5352;DHT22;2698;51.454;6.736;2022-11-15T04:33:10;12.50;99.90
5352;DHT22;2698;51.454;6.736;2022-11-15T04:35:36;12.50;99.90
5352;DHT22;2698;51.454;6.736;2022-11-15T04:38:07;12.50;99.90
5352;DHT22;2698;51.454;6.736;2022-11-15T04:40:33;12.50;99.90
5352;DHT22;2698;51.454;6.736;2022-11-15T04:42:59;12.50;99.90
5352;DHT22;2698;51.454;6.736;2022-11-15T04:45:26;12.50;99.90
5352;DHT22;2698;51.454;6.736;2022-11-15T04:47:53;12.50;99.90
5352;DHT22;2698;51.454;6.736;2022-11-15T04:50:19;12.60;99.90
5352;DHT22;2698;51.454;6.736;2022-11-15T04:52:51;12.50;99.90
5352;DHT22;2698;51.454;6.736;2022-11-15T04:55:19;12.50;99.90
5352;DHT22;2698;51.454;6.736;2022-11-15T04:57:46;12.50;99.90
5352;DHT22;2698;51.454;6.736;2022-11-15T05:00:14;12.30;99.90
5352;DHT22;2698;51.454;6.736;2022-11-15T05:02:42;12.60;99.90
5352;DHT22;2698;51.454;6.736;2022-11-15T05:05:26;12.60;99.90
5352;DHT22;2698;51.454;6.736;2022-11-15T05:07:53;12.50;99.90
5352;DHT22;2698;51.454;6.736;2022-11-15T05:10:21;12.60;99.90
5352;DHT22;2698;51.454;6.736;2022-11-15T05:12:48;12.60;99.90
5352;DHT22;2698;51.454;6.736;2022-11-15T05:15:15;12.60;99.90
5352;DHT22;2698;51.454;6.736;2022-11-15T05:17:41;12.60;99.90
5352;DHT22;2698;51.454;6.736;2022-11-15T05:20:09;12.60;99.90
5352;DHT22;2698;51.454;6.736;2022-11-15T05:22:36;12.60;99.90
5352;DHT22;2698;51.454;6.736;2022-11-15T05:25:04;12.60;99.90
5352;DHT22;2698;51.454;6.736;2022-11-15T05:27:32;12.60;99.90
5352;DHT22;2698;51.454;6.736;2022-11-15T05:29:59;12.60;99.90
5352;DHT22;2698;51.454;6.736;2022-11-15T05:32:26;12.60;99.90
5352;DHT22;2698;51.454;6.736;2022-11-15T05:34:54;12.60;99.90
5352;DHT22;2698;51.454;6.736;2022-11-15T05:37:21;12.60;99.90
5352;DHT22;2698;51.454;6.736;2022-11-15T05:39:48;12.60;99.90
5352;DHT22;2698;51.454;6.736;2022-11-15T05:42:15;12.60;99.90
5352;DHT22;2698;51.454;6.736;2022-11-15T05:44:47;12.60;99.90
5352;DHT22;2698;51.454;6.736;2022-11-15T05:47:17;12.50;99.90
5352;DHT22;2698;51.454;6.736;2022-11-15T05:49:48;12.50;99.90
5352;DHT22;2698;51.454;6.736;2022-11-15T05:52:18;12.60;99.90
5352;DHT22;2698;51.454;6.736;2022-11-15T05:54:45;12.50;99.90
5352;DHT22;2698;51.454;6.736;2022-11-15T05:57:12;12.60;99.90
5352;DHT22;2698;51.454;6.736;2022-11-15T05:59:39;12.50;99.90
5352;DHT22;2698;51.454;6.736;2022-11-15T06:02:07;12.50;99.90
5352;DHT22;2698;51.454;6.736;2022-11-15T06:04:34;12.50;99.90
5352;DHT22;2698;51.454;6.736;2022-11-15T06:07:01;12.50;99.90
5352;DHT22;2698;51.454;6.736;2022-11-15T06:09:28;12.50;99.90
5352;DHT22;2698;51.454;6.736;2022-11-15T06:11:54;12.50;99.90
5352;DHT22;2698;51.454;6.736;2022-11-15T06:14:21;12.50;99.90
5352;DHT22;2698;51.454;6.736;2022-11-15T06:16:48;12.50;99.90
5352;DHT22;2698;51.454;6.736;2022-11-15T06:19:16;12.40;99.90
5352;DHT22;2698;51.454;6.736;2022-11-15T06:21:43;12.40;99.90
5352;DHT22;2698;51.454;6.736;2022-11-15T06:24:09;12.50;99.90
5352;DHT22;2698;51.454;6.736;2022-11-15T06:26:36;12.50;99.90
5352;DHT22;2698;51.454;6.736;2022-11-15T06:29:03;12.50;99.90
5352;DHT22;2698;51.454;6.736;2022-11-15T06:31:30;12.50;99.90
5352;DHT22;2698;51.454;6.736;2022-11-15T06:33:57;12.40;99.90
5352;DHT22;2698;51.454;6.736;2022-11-15T06:36:25;12.50;99.90
5352;DHT22;2698;51.454;6.736;2022-11-15T06:38:51;12.50;99.90
5352;DHT22;2698;51.454;6.736;2022-11-15T06:41:18;12.50;99.90
5352;DHT22;2698;51.454;6.736;2022-11-15T06:43:46;12.50;99.90
5352;DHT22;2698;51.454;6.736;2022-11-15T06:46:13;12.50;99.90
5352;DHT22;2698;51.454;6.736;2022-11-15T06:48:39;12.50;99.90
5352;DHT22;2698;51.454;6.736;2022-11-15T06:51:06;12.40;99.90
5352;DHT22;2698;51.454;6.736;2022-11-15T06:53:35;12.40;99.90
5352;DHT22;2698;51.454;6.736;2022-11-15T06:56:02;12.40;99.90
5352;DHT22;2698;51.454;6.736;2022-11-15T06:58:29;12.40;99.90
5352;DHT22;2698;51.454;6.736;2022-11-15T07:00:58;12.30;99.90
5352;DHT22;2698;51.454;6.736;2022-11-15T07:03:25;12.30;99.90
5352;DHT22;2698;51.454;6.736;2022-11-15T07:05:53;12.30;99.90
5352;DHT22;2698;51.454;6.736;2022-11-15T07:08:20;12.30;99.90
5352;DHT22;2698;51.454;6.736;2022-11-15T07:10:48;12.40;99.90
5352;DHT22;2698;51.454;6.736;2022-11-15T07:13:15;12.30;99.90
5352;DHT22;2698;51.454;6.736;2022-11-15T07:15:42;12.40;99.90
5352;DHT22;2698;51.454;6.736;2022-11-15T07:18:09;12.40;99.90
5352;DHT22;2698;51.454;6.736;2022-11-15T07:20:36;12.40;99.90
5352;DHT22;2698;51.454;6.736;2022-11-15T07:23:04;12.40;99.90
5352;DHT22;2698;51.454;6.736;2022-11-15T07:25:31;12.40;99.90
5352;DHT22;2698;51.454;6.736;2022-11-15T07:28:00;12.50;99.90
5352;DHT22;2698;51.454;6.736;2022-11-15T07:30:27;12.50;99.90
5352;DHT22;2698;51.454;6.736;2022-11-15T07:32:54;12.50;99.90
5352;DHT22;2698;51.454;6.736;2022-11-15T07:35:21;12.50;99.90
5352;DHT22;2698;51.454;6.736;2022-11-15T07:37:53;12.50;99.90
5352;DHT22;2698;51.454;6.736;2022-11-15T07:40:21;12.50;99.90
5352;DHT22;2698;51.454;6.736;2022-11-15T07:42:48;12.50;99.90
5352;DHT22;2698;51.454;6.736;2022-11-15T07:45:23;12.50;99.90
5352;DHT22;2698;51.454;6.736;2022-11-15T07:47:51;12.50;99.90
5352;DHT22;2698;51.454;6.736;2022-11-15T07:50:18;12.50;99.90
5352;DHT22;2698;51.454;6.736;2022-11-15T07:52:44;12.50;99.90
5352;DHT22;2698;51.454;6.736;2022-11-15T07:55:11;12.30;99.90
5352;DHT22;2698;51.454;6.736;2022-11-15T07:57:38;12.20;99.90
5352;DHT22;2698;51.454;6.736;2022-11-15T08:00:06;12.10;99.90
5352;DHT22;2698;51.454;6.736;2022-11-15T08:02:34;12.00;99.90
5352;DHT22;2698;51.454;6.736;2022-11-15T08:05:01;12.00;99.90
5352;DHT22;2698;51.454;6.736;2022-11-15T08:07:28;11.80;99.90
5352;DHT22;2698;51.454;6.736;2022-11-15T08:09:55;11.80;99.90
5352;DHT22;2698;51.454;6.736;2022-11-15T08:12:22;11.60;99.90
5352;DHT22;2698;51.454;6.736;2022-11-15T08:14:49;11.60;99.90
5352;DHT22;2698;51.454;6.736;2022-11-15T08:17:16;11.40;99.90
5352;DHT22;2698;51.454;6.736;2022-11-15T08:19:44;11.40;99.90
5352;DHT22;2698;51.454;6.736;2022-11-15T08:22:11;11.40;99.90
5352;DHT22;2698;51.454;6.736;2022-11-15T08:24:37;11.30;99.90
5352;DHT22;2698;51.454;6.736;2022-11-15T08:27:04;11.30;99.90
5352;DHT22;2698;51.454;6.736;2022-11-15T08:29:40;11.40;99.90
5352;DHT22;2698;51.454;6.736;2022-11-15T08:32:08;11.40;99.90
5352;DHT22;2698;51.454;6.736;2022-11-15T08:34:34;11.40;99.90
5352;DHT22;2698;51.454;6.736;2022-11-15T08:37:03;11.50;99.90
5352;DHT22;2698;51.454;6.736;2022-11-15T08:39:30;11.40;99.90
5352;DHT22;2698;51.454;6.736;2022-11-15T08:41:56;11.40;99.90
5352;DHT22;2698;51.454;6.736;2022-11-15T08:44:23;11.50;99.90
5352;DHT22;2698;51.454;6.736;2022-11-15T08:46:50;11.50;99.90
5352;DHT22;2698;51.454;6.736;2022-11-15T08:49:17;11.50;99.90
5352;DHT22;2698;51.454;6.736;2022-11-15T08:51:44;11.60;99.90
5352;DHT22;2698;51.454;6.736;2022-11-15T08:54:12;11.70;99.90
5352;DHT22;2698;51.454;6.736;2022-11-15T08:56:38;11.70;99.90
5352;DHT22;2698;51.454;6.736;2022-11-15T08:59:05;11.70;99.90
5352;DHT22;2698;51.454;6.736;2022-11-15T09:01:32;11.60;99.90
5352;DHT22;2698;51.454;6.736;2022-11-15T09:03:59;11.60;99.90
5352;DHT22;2698;51.454;6.736;2022-11-15T09:06:25;11.60;99.90
5352;DHT22;2698;51.454;6.736;2022-11-15T09:08:52;11.60;99.90
5352;DHT22;2698;51.454;6.736;2022-11-15T09:11:20;11.60;99.90
5352;DHT22;2698;51.454;6.736;2022-11-15T09:13:48;11.60;99.90
5352;DHT22;2698;51.454;6.736;2022-11-15T09:16:15;11.70;99.90
5352;DHT22;2698;51.454;6.736;2022-11-15T09:18:42;11.60;99.90
5352;DHT22;2698;51.454;6.736;2022-11-15T09:21:09;11.70;99.90
5352;DHT22;2698;51.454;6.736;2022-11-15T09:23:36;11.80;99.90
5352;DHT22;2698;51.454;6.736;2022-11-15T09:26:04;11.80;99.90
5352;DHT22;2698;51.454;6.736;2022-11-15T09:28:33;12.20;99.90
5352;DHT22;2698;51.454;6.736;2022-11-15T09:31:01;12.00;99.90
5352;DHT22;2698;51.454;6.736;2022-11-15T09:33:29;12.20;99.90
5352;DHT22;2698;51.454;6.736;2022-11-15T09:36:00;12.40;99.90
5352;DHT22;2698;51.454;6.736;2022-11-15T09:38:27;12.50;99.90
5352;DHT22;2698;51.454;6.736;2022-11-15T09:41:08;12.50;99.90
5352;DHT22;2698;51.454;6.736;2022-11-15T09:43:47;12.70;99.90
5352;DHT22;2698;51.454;6.736;2022-11-15T09:46:22;12.80;99.90
5352;DHT22;2698;51.454;6.736;2022-11-15T09:48:53;12.60;99.90
5352;DHT22;2698;51.454;6.736;2022-11-15T09:51:25;12.70;99.90
5352;DHT22;2698;51.454;6.736;2022-11-15T09:54:00;12.70;99.90
5352;DHT22;2698;51.454;6.736;2022-11-15T09:56:30;12.70;99.90
5352;DHT22;2698;51.454;6.736;2022-11-15T09:59:08;12.70;99.90
5352;DHT22;2698;51.454;6.736;2022-11-15T10:01:44;12.70;99.90
5352;DHT22;2698;51.454;6.736;2022-11-15T10:04:13;12.70;99.90
5352;DHT22;2698;51.454;6.736;2022-11-15T10:06:44;12.70;99.90
5352;DHT22;2698;51.454;6.736;2022-11-15T10:09:17;12.70;99.90
5352;DHT22;2698;51.454;6.736;2022-11-15T10:11:45;12.70;99.90
5352;DHT22;2698;51.454;6.736;2022-11-15T10:14:17;12.70;99.90
5352;DHT22;2698;51.454;6.736;2022-11-15T10:19:56;12.70;99.90
5352;DHT22;2698;51.454;6.736;2022-11-15T10:22:29;12.80;99.90
5352;DHT22;2698;51.454;6.736;2022-11-15T10:25:12;12.80;99.90
5352;DHT22;2698;51.454;6.736;2022-11-15T10:27:41;12.80;99.90
5352;DHT22;2698;51.454;6.736;2022-11-15T10:30:14;12.70;99.90
5352;DHT22;2698;51.454;6.736;2022-11-15T10:32:42;12.70;99.90
5352;DHT22;2698;51.454;6.736;2022-11-15T10:35:21;12.80;99.90
5352;DHT22;2698;51.454;6.736;2022-11-15T10:37:48;12.80;99.90
5352;DHT22;2698;51.454;6.736;2022-11-15T10:40:17;12.80;99.90
5352;DHT22;2698;51.454;6.736;2022-11-15T10:42:44;12.90;99.90
5352;DHT22;2698;51.454;6.736;2022-11-15T10:45:26;12.90;99.90
5352;DHT22;2698;51.454;6.736;2022-11-15T10:47:53;12.80;99.90
5352;DHT22;2698;51.454;6.736;2022-11-15T10:50:29;12.80;99.90
5352;DHT22;2698;51.454;6.736;2022-11-15T10:52:56;12.90;99.90
5352;DHT22;2698;51.454;6.736;2022-11-15T10:55:26;12.90;99.90
5352;DHT22;2698;51.454;6.736;2022-11-15T10:57:55;12.90;99.90
5352;DHT22;2698;51.454;6.736;2022-11-15T11:00:30;12.90;99.90
5352;DHT22;2698;51.454;6.736;2022-11-15T11:03:00;12.90;99.90
5352;DHT22;2698;51.454;6.736;2022-11-15T11:05:29;12.80;99.90
5352;DHT22;2698;51.454;6.736;2022-11-15T11:07:58;12.90;99.90
5352;DHT22;2698;51.454;6.736;2022-11-15T11:10:27;12.90;99.90
5352;DHT22;2698;51.454;6.736;2022-11-15T11:12:53;12.90;99.90
5352;DHT22;2698;51.454;6.736;2022-11-15T11:15:23;13.00;99.90
5352;DHT22;2698;51.454;6.736;2022-11-15T11:18:02;13.00;99.90
5352;DHT22;2698;51.454;6.736;2022-11-15T11:20:38;13.00;99.90
5352;DHT22;2698;51.454;6.736;2022-11-15T11:23:31;13.00;99.90
5352;DHT22;2698;51.454;6.736;2022-11-15T11:26:08;13.00;99.90
5352;DHT22;2698;51.454;6.736;2022-11-15T11:28:42;13.00;99.90
5352;DHT22;2698;51.454;6.736;2022-11-15T11:31:20;13.00;99.90
5352;DHT22;2698;51.454;6.736;2022-11-15T11:33:57;13.10;99.90
5352;DHT22;2698;51.454;6.736;2022-11-15T11:36:30;13.00;99.90
5352;DHT22;2698;51.454;6.736;2022-11-15T11:39:14;12.90;99.90
5352;DHT22;2698;51.454;6.736;2022-11-15T11:41:50;12.90;99.90
5352;DHT22;2698;51.454;6.736;2022-11-15T11:44:41;12.90;99.90
5352;DHT22;2698;51.454;6.736;2022-11-15T11:47:11;13.00;99.90
5352;DHT22;2698;51.454;6.736;2022-11-15T11:49:44;13.00;99.90
5352;DHT22;2698;51.454;6.736;2022-11-15T11:52:17;13.00;99.90
5352;DHT22;2698;51.454;6.736;2022-11-15T11:54:54;13.00;99.90
5352;DHT22;2698;51.454;6.736;2022-11-15T11:57:30;13.00;99.90
5352;DHT22;2698;51.454;6.736;2022-11-15T12:00:02;13.00;99.90
5352;DHT22;2698;51.454;6.736;2022-11-15T12:02:33;13.10;99.90
5352;DHT22;2698;51.454;6.736;2022-11-15T12:05:10;13.10;99.90
5352;DHT22;2698;51.454;6.736;2022-11-15T12:07:39;13.10;99.90
5352;DHT22;2698;51.454;6.736;2022-11-15T12:10:16;13.20;99.90
5352;DHT22;2698;51.454;6.736;2022-11-15T12:12:52;13.10;99.90
5352;DHT22;2698;51.454;6.736;2022-11-15T12:15:23;13.20;99.90
5352;DHT22;2698;51.454;6.736;2022-11-15T12:17:51;13.20;99.90
5352;DHT22;2698;51.454;6.736;2022-11-15T12:20:22;13.20;99.90
5352;DHT22;2698;51.454;6.736;2022-11-15T12:22:53;13.30;99.90
5352;DHT22;2698;51.454;6.736;2022-11-15T12:25:25;13.30;99.90
5352;DHT22;2698;51.454;6.736;2022-11-15T12:27:57;13.30;99.90
5352;DHT22;2698;51.454;6.736;2022-11-15T12:30:42;13.20;99.90
5352;DHT22;2698;51.454;6.736;2022-11-15T12:33:29;13.30;99.90
5352;DHT22;2698;51.454;6.736;2022-11-15T12:36:03;13.20;99.90
5352;DHT22;2698;51.454;6.736;2022-11-15T12:38:50;13.30;99.90
5352;DHT22;2698;51.454;6.736;2022-11-15T12:41:19;13.30;99.90
5352;DHT22;2698;51.454;6.736;2022-11-15T12:43:47;13.40;99.90
5352;DHT22;2698;51.454;6.736;2022-11-15T12:46:26;13.30;99.90
5352;DHT22;2698;51.454;6.736;2022-11-15T12:52:07;13.40;99.90
5352;DHT22;2698;51.454;6.736;2022-11-15T12:54:54;13.30;99.90
5352;DHT22;2698;51.454;6.736;2022-11-15T12:57:41;13.40;99.90
5352;DHT22;2698;51.454;6.736;2022-11-15T13:00:36;13.50;99.90
5352;DHT22;2698;51.454;6.736;2022-11-15T13:03:24;13.40;99.90
5352;DHT22;2698;51.454;6.736;2022-11-15T13:06:00;13.50;99.90
5352;DHT22;2698;51.454;6.736;2022-11-15T13:08:49;13.50;99.90
5352;DHT22;2698;51.454;6.736;2022-11-15T13:11:42;13.50;99.90
5352;DHT22;2698;51.454;6.736;2022-11-15T13:14:40;13.60;99.90
5352;DHT22;2698;51.454;6.736;2022-11-15T13:17:26;13.60;99.90
5352;DHT22;2698;51.454;6.736;2022-11-15T13:19:58;13.70;99.90
5352;DHT22;2698;51.454;6.736;2022-11-15T13:22:26;13.70;99.90
5352;DHT22;2698;51.454;6.736;2022-11-15T13:25:16;13.70;99.90
5352;DHT22;2698;51.454;6.736;2022-11-15T13:27:46;13.70;99.90
5352;DHT22;2698;51.454;6.736;2022-11-15T13:30:16;13.70;99.90
5352;DHT22;2698;51.454;6.736;2022-11-15T13:32:45;13.70;99.90
5352;DHT22;2698;51.454;6.736;2022-11-15T13:35:20;13.70;99.90
5352;DHT22;2698;51.454;6.736;2022-11-15T13:37:49;13.80;99.90
5352;DHT22;2698;51.454;6.736;2022-11-15T13:40:25;13.80;99.90
5352;DHT22;2698;51.454;6.736;2022-11-15T13:42:53;13.90;99.90
5352;DHT22;2698;51.454;6.736;2022-11-15T13:45:20;13.90;99.90
5352;DHT22;2698;51.454;6.736;2022-11-15T13:47:51;13.90;99.90
5352;DHT22;2698;51.454;6.736;2022-11-15T13:50:21;13.90;99.90
5352;DHT22;2698;51.454;6.736;2022-11-15T13:52:51;14.00;99.90
5352;DHT22;2698;51.454;6.736;2022-11-15T13:55:21;14.00;99.90
5352;DHT22;2698;51.454;6.736;2022-11-15T13:57:52;14.00;99.90
5352;DHT22;2698;51.454;6.736;2022-11-15T14:00:32;14.10;99.90
5352;DHT22;2698;51.454;6.736;2022-11-15T14:03:07;14.10;99.90
5352;DHT22;2698;51.454;6.736;2022-11-15T14:05:34;14.20;99.90
5352;DHT22;2698;51.454;6.736;2022-11-15T14:08:05;14.10;99.90
5352;DHT22;2698;51.454;6.736;2022-11-15T14:10:39;14.10;99.90
5352;DHT22;2698;51.454;6.736;2022-11-15T14:13:27;14.00;99.90
5352;DHT22;2698;51.454;6.736;2022-11-15T14:15:54;14.00;99.90
5352;DHT22;2698;51.454;6.736;2022-11-15T14:18:40;14.00;99.90
5352;DHT22;2698;51.454;6.736;2022-11-15T14:21:07;14.00;99.90
5352;DHT22;2698;51.454;6.736;2022-11-15T14:23:36;13.90;99.90
5352;DHT22;2698;51.454;6.736;2022-11-15T14:26:02;14.00;99.90
5352;DHT22;2698;51.454;6.736;2022-11-15T14:28:31;14.00;99.90
5352;DHT22;2698;51.454;6.736;2022-11-15T14:30:59;14.00;99.90
5352;DHT22;2698;51.454;6.736;2022-11-15T14:33:28;14.00;99.90
5352;DHT22;2698;51.454;6.736;2022-11-15T14:35:57;13.90;99.90
5352;DHT22;2698;51.454;6.736;2022-11-15T14:38:24;13.80;99.90
5352;DHT22;2698;51.454;6.736;2022-11-15T14:40:52;13.90;99.90
5352;DHT22;2698;51.454;6.736;2022-11-15T14:43:21;13.80;99.90
5352;DHT22;2698;51.454;6.736;2022-11-15T14:45:48;13.80;99.90
5352;DHT22;2698;51.454;6.736;2022-11-15T14:48:15;13.80;99.90
5352;DHT22;2698;51.454;6.736;2022-11-15T14:50:45;13.70;99.90
5352;DHT22;2698;51.454;6.736;2022-11-15T14:53:12;13.70;99.90
5352;DHT22;2698;51.454;6.736;2022-11-15T14:55:40;13.70;99.90
5352;DHT22;2698;51.454;6.736;2022-11-15T14:58:08;13.70;99.90
5352;DHT22;2698;51.454;6.736;2022-11-15T15:00:36;13.70;99.90
5352;DHT22;2698;51.454;6.736;2022-11-15T15:03:04;13.70;99.90
5352;DHT22;2698;51.454;6.736;2022-11-15T15:05:33;13.70;99.90
5352;DHT22;2698;51.454;6.736;2022-11-15T15:08:00;13.70;99.90
5352;DHT22;2698;51.454;6.736;2022-11-15T15:10:31;13.70;99.90
5352;DHT22;2698;51.454;6.736;2022-11-15T15:12:58;13.60;99.90
5352;DHT22;2698;51.454;6.736;2022-11-15T15:15:32;13.70;99.90
5352;DHT22;2698;51.454;6.736;2022-11-15T15:17:58;13.60;99.90
5352;DHT22;2698;51.454;6.736;2022-11-15T15:20:25;13.60;99.90
5352;DHT22;2698;51.454;6.736;2022-11-15T15:22:52;13.60;99.90
5352;DHT22;2698;51.454;6.736;2022-11-15T15:25:22;13.60;99.90
5352;DHT22;2698;51.454;6.736;2022-11-15T15:27:51;13.60;99.90
5352;DHT22;2698;51.454;6.736;2022-11-15T15:30:18;13.60;99.90
5352;DHT22;2698;51.454;6.736;2022-11-15T15:32:46;13.60;99.90
5352;DHT22;2698;51.454;6.736;2022-11-15T15:35:13;13.60;99.90
5352;DHT22;2698;51.454;6.736;2022-11-15T15:37:41;13.50;99.90
5352;DHT22;2698;51.454;6.736;2022-11-15T15:40:13;13.50;99.90
5352;DHT22;2698;51.454;6.736;2022-11-15T15:42:41;13.60;99.90
5352;DHT22;2698;51.454;6.736;2022-11-15T15:45:08;13.50;99.90
5352;DHT22;2698;51.454;6.736;2022-11-15T15:47:35;13.20;99.90
5352;DHT22;2698;51.454;6.736;2022-11-15T15:50:08;13.50;99.90
5352;DHT22;2698;51.454;6.736;2022-11-15T15:52:37;13.40;99.90
5352;DHT22;2698;51.454;6.736;2022-11-15T15:55:04;13.50;99.90
5352;DHT22;2698;51.454;6.736;2022-11-15T15:57:31;13.70;99.90
5352;DHT22;2698;51.454;6.736;2022-11-15T15:59:58;13.50;99.90
5352;DHT22;2698;51.454;6.736;2022-11-15T16:02:24;13.40;99.90
5352;DHT22;2698;51.454;6.736;2022-11-15T16:04:51;13.40;99.90
5352;DHT22;2698;51.454;6.736;2022-11-15T16:07:21;13.40;99.90
5352;DHT22;2698;51.454;6.736;2022-11-15T16:09:49;13.50;99.90
5352;DHT22;2698;51.454;6.736;2022-11-15T16:12:28;13.40;99.90
5352;DHT22;2698;51.454;6.736;2022-11-15T16:14:55;13.40;99.90
5352;DHT22;2698;51.454;6.736;2022-11-15T16:17:23;13.40;99.90
5352;DHT22;2698;51.454;6.736;2022-11-15T16:19:50;13.40;99.90
5352;DHT22;2698;51.454;6.736;2022-11-15T16:22:17;13.40;99.90
5352;DHT22;2698;51.454;6.736;2022-11-15T16:24:45;13.50;99.90
5352;DHT22;2698;51.454;6.736;2022-11-15T16:27:14;13.50;99.90
5352;DHT22;2698;51.454;6.736;2022-11-15T16:29:41;13.50;99.90
5352;DHT22;2698;51.454;6.736;2022-11-15T16:32:07;13.40;99.90